Time;durP1;ratioP1;P1;durP2;ratioP2;P2;SDS_P1;SDS_P2;PMS_P1;PMS_P2;Temp;Humidity;BMP_temperature;BMP_pressure;BME280_temperature;BME280_humidity;BME280_pressure;Samples;Min_cycle;Max_cycle;Signal;HPM_P1;HPM_P2
2023/04/14 00:00:58;;;;;;;93.80;52.42;;;15.50;68.70;;;;;;4954943;28;86692;-60
2023/04/14 00:03:24;;;;;;;94.13;52.55;;;15.50;68.60;;;;;;4967422;28;85202;-47
2023/04/14 00:05:50;;;;;;;93.32;52.47;;;15.50;68.60;;;;;;4955440;28;84625;-60
2023/04/14 00:08:15;;;;;;;93.68;52.08;;;15.40;68.60;;;;;;4967265;28;87584;-59
2023/04/14 00:10:41;;;;;;;93.80;52.28;;;15.40;68.60;;;;;;4963010;28;87180;-54
2023/04/14 00:13:07;;;;;;;94.30;52.55;;;15.40;68.50;;;;;;4954175;28;86597;-56
2023/04/14 00:15:32;;;;;;;93.95;52.30;;;15.40;68.50;;;;;;4957339;28;86120;-57
2023/04/14 00:17:58;;;;;;;94.53;52.35;;;15.40;68.50;;;;;;4961917;28;88500;-58
2023/04/14 00:20:24;;;;;;;93.15;52.30;;;15.40;68.60;;;;;;4960021;28;87997;-60
2023/04/14 00:22:49;;;;;;;92.72;52.15;;;15.40;68.60;;;;;;4959476;28;87471;-61
2023/04/14 00:25:15;;;;;;;93.45;52.60;;;15.40;68.60;;;;;;4956828;28;85191;-60
2023/04/14 00:27:41;;;;;;;93.10;52.13;;;15.40;68.50;;;;;;4939986;28;87319;-53
2023/04/14 00:30:07;;;;;;;93.32;52.47;;;15.40;68.60;;;;;;4951661;28;90683;-59
2023/04/14 00:32:33;;;;;;;93.65;52.13;;;15.30;68.40;;;;;;4944951;28;86095;-59
2023/04/14 00:35:01;;;;;;;92.30;52.05;;;15.30;68.50;;;;;;4950667;28;85556;-50
2023/04/14 00:37:27;;;;;;;93.22;51.97;;;15.30;68.40;;;;;;4946091;28;85050;-59
2023/04/14 00:39:53;;;;;;;92.90;51.88;;;15.30;68.50;;;;;;4947434;28;85593;-57
2023/04/14 00:42:19;;;;;;;93.00;52.10;;;15.30;68.40;;;;;;4948767;28;86445;-59
2023/04/14 00:44:46;;;;;;;92.53;51.90;;;15.30;68.50;;;;;;4953461;28;84821;-61
2023/04/14 00:47:12;;;;;;;93.00;51.97;;;15.30;68.40;;;;;;4950991;28;85690;-60
2023/04/14 00:49:38;;;;;;;92.50;52.00;;;15.20;68.30;;;;;;4959711;28;84915;-60
2023/04/14 00:52:05;;;;;;;92.95;52.13;;;15.20;68.40;;;;;;4957567;28;84920;-61
2023/04/14 00:54:32;;;;;;;93.72;52.13;;;15.20;68.30;;;;;;4947742;28;85347;-50
2023/04/14 00:56:59;;;;;;;91.72;51.70;;;15.20;68.40;;;;;;4947911;28;85541;-60
2023/04/14 00:59:27;;;;;;;94.03;52.15;;;15.20;68.40;;;;;;4948917;28;87389;-50
2023/04/14 01:01:54;;;;;;;92.40;52.10;;;15.20;68.30;;;;;;4940625;28;89261;-55
2023/04/14 01:04:21;;;;;;;91.93;52.05;;;15.20;68.30;;;;;;4944489;28;85742;-50
2023/04/14 01:06:46;;;;;;;93.45;52.40;;;15.20;68.30;;;;;;4943689;28;89047;-59
2023/04/14 01:09:14;;;;;;;92.40;52.13;;;15.20;68.40;;;;;;4947720;28;86514;-61
2023/04/14 01:12:05;;;;;;;92.55;51.97;;;15.20;68.30;;;;;;4936673;28;85530;-46
2023/04/14 01:14:52;;;;;;;92.47;51.78;;;15.20;68.30;;;;;;4957524;28;88901;-55
2023/04/14 01:17:44;;;;;;;92.82;52.05;;;15.10;68.30;;;;;;4950536;28;85731;-58
2023/04/14 01:20:21;;;;;;;92.72;52.17;;;15.10;68.30;;;;;;4956453;28;89120;-60
2023/04/14 01:22:53;;;;;;;92.53;51.97;;;15.10;68.20;;;;;;4955465;28;86440;-59
2023/04/14 01:25:51;;;;;;;95.60;51.83;;;15.10;68.20;;;;;;4961082;28;86152;-55
2023/04/14 01:28:40;;;;;;;92.38;51.75;;;15.10;68.40;;;;;;4949330;28;88328;-57
2023/04/14 01:31:24;;;;;;;92.88;51.83;;;15.10;68.40;;;;;;4955767;28;85145;-54
2023/04/14 01:34:17;;;;;;;92.90;51.85;;;15.10;68.30;;;;;;4953235;28;87953;-58
2023/04/14 01:36:47;;;;;;;92.82;52.25;;;15.00;68.20;;;;;;4952760;28;86211;-60
2023/04/14 01:39:19;;;;;;;91.68;52.13;;;15.00;69.00;;;;;;4955882;28;86118;-52
2023/04/14 01:41:51;;;;;;;92.32;51.92;;;15.10;68.30;;;;;;4958760;28;88905;-56
2023/04/14 01:44:18;;;;;;;91.78;51.85;;;15.00;68.20;;;;;;4953178;28;84488;-60
2023/04/14 01:46:48;;;;;;;92.85;52.17;;;15.00;68.10;;;;;;4953944;28;87391;-60
2023/04/14 01:49:14;;;;;;;91.55;51.63;;;15.00;68.10;;;;;;4958128;28;85445;-60
2023/04/14 01:51:42;;;;;;;92.20;51.90;;;15.00;68.10;;;;;;4955548;28;85157;-53
2023/04/14 01:54:10;;;;;;;92.28;52.05;;;15.00;68.20;;;;;;4957919;28;87073;-60
2023/04/14 01:56:38;;;;;;;93.32;51.70;;;15.00;68.10;;;;;;4954857;28;85645;-58
2023/04/14 01:59:05;;;;;;;91.93;51.88;;;15.00;68.10;;;;;;4955773;28;86258;-60
2023/04/14 02:01:33;;;;;;;92.18;52.10;;;15.00;68.20;;;;;;4958074;28;84949;-55
2023/04/14 02:04:00;;;;;;;91.97;51.65;;;14.90;68.10;;;;;;4950188;28;85205;-57
2023/04/14 02:06:27;;;;;;;91.40;51.58;;;15.00;68.20;;;;;;4960724;28;84723;-60
2023/04/14 02:08:53;;;;;;;92.03;52.13;;;15.00;68.20;;;;;;4951375;28;85272;-58
2023/04/14 02:11:20;;;;;;;92.10;51.85;;;14.90;68.10;;;;;;4957754;28;85719;-59
2023/04/14 02:13:47;;;;;;;90.55;51.50;;;14.90;68.20;;;;;;4953194;28;88714;-55
2023/04/14 02:16:14;;;;;;;92.95;51.55;;;14.90;68.20;;;;;;4958169;28;86883;-60
2023/04/14 02:18:40;;;;;;;92.68;51.95;;;14.90;68.30;;;;;;4954960;28;87552;-54
2023/04/14 02:21:08;;;;;;;91.22;51.63;;;14.90;68.00;;;;;;4956883;28;85324;-51
2023/04/14 02:23:34;;;;;;;91.95;51.95;;;14.90;68.00;;;;;;4954707;28;86571;-60
2023/04/14 02:26:06;;;;;;;92.00;51.85;;;14.90;68.10;;;;;;4961895;28;85107;-57
2023/04/14 02:28:35;;;;;;;90.72;51.28;;;14.90;68.00;;;;;;4952071;28;85896;-54
2023/04/14 02:31:06;;;;;;;93.43;51.83;;;14.90;68.00;;;;;;4954215;28;85499;-53
2023/04/14 02:33:35;;;;;;;90.68;51.70;;;14.80;67.90;;;;;;4950027;28;86445;-56
2023/04/14 02:36:05;;;;;;;91.00;51.72;;;14.80;68.80;;;;;;4983503;28;85312;-55
2023/04/14 02:38:36;;;;;;;91.97;51.75;;;14.80;68.00;;;;;;4953441;28;88321;-51
2023/04/14 02:41:19;;;;;;;91.15;51.78;;;14.80;68.00;;;;;;4955351;28;85532;-60
2023/04/14 02:43:52;;;;;;;91.30;51.83;;;14.80;67.80;;;;;;4951335;28;84939;-58
2023/04/14 02:46:20;;;;;;;91.43;51.83;;;14.80;68.00;;;;;;4956803;28;85137;-58
2023/04/14 02:48:47;;;;;;;91.10;51.85;;;14.80;67.90;;;;;;4958832;28;89694;-48
2023/04/14 02:51:15;;;;;;;92.13;51.75;;;14.80;68.10;;;;;;4994689;28;86309;-60
2023/04/14 02:53:41;;;;;;;91.47;51.67;;;14.80;68.10;;;;;;4959631;28;85924;-54
2023/04/14 02:56:07;;;;;;;91.47;51.55;;;14.80;68.10;;;;;;4956332;28;85015;-59
2023/04/14 02:58:33;;;;;;;91.03;51.35;;;14.80;67.90;;;;;;4940709;28;85090;-50
2023/04/14 03:01:00;;;;;;;91.88;51.53;;;14.70;68.00;;;;;;4947982;28;85218;-60
2023/04/14 03:03:27;;;;;;;92.28;51.80;;;14.70;67.90;;;;;;4951345;28;85589;-60
2023/04/14 03:05:54;;;;;;;92.22;51.90;;;14.70;67.90;;;;;;4948656;28;88611;-58
2023/04/14 03:08:21;;;;;;;91.35;51.60;;;14.70;67.80;;;;;;4947642;28;84798;-60
2023/04/14 03:10:47;;;;;;;91.78;52.15;;;14.70;68.00;;;;;;4957760;28;86120;-48
2023/04/14 03:13:15;;;;;;;91.75;51.67;;;14.70;67.80;;;;;;4949270;28;88748;-60
2023/04/14 03:15:41;;;;;;;90.82;51.83;;;14.70;67.80;;;;;;4961121;28;84664;-54
2023/04/14 03:18:07;;;;;;;91.65;51.67;;;14.70;67.90;;;;;;4955077;28;85553;-59
2023/04/14 03:20:34;;;;;;;91.22;51.65;;;14.70;67.80;;;;;;4961628;28;84600;-60
2023/04/14 03:23:03;;;;;;;91.63;51.67;;;14.60;67.90;;;;;;4965872;28;86156;-49
2023/04/14 03:25:34;;;;;;;91.22;51.70;;;14.60;68.60;;;;;;4956807;28;84986;-61
2023/04/14 03:28:02;;;;;;;91.03;51.78;;;14.60;67.80;;;;;;4962351;28;85782;-60
2023/04/14 03:30:34;;;;;;;91.65;51.38;;;14.60;67.80;;;;;;4954188;28;89637;-54
2023/04/14 03:33:08;;;;;;;91.90;52.30;;;14.60;67.80;;;;;;4945930;28;89909;-60
2023/04/14 03:35:35;;;;;;;93.70;52.08;;;14.60;67.80;;;;;;4951093;28;85736;-52
2023/04/14 03:38:05;;;;;;;91.22;51.60;;;14.60;68.00;;;;;;4944337;28;87549;-53
2023/04/14 03:40:37;;;;;;;91.88;52.20;;;14.60;67.90;;;;;;4950695;28;86821;-51
2023/04/14 03:43:04;;;;;;;91.82;52.20;;;14.60;68.00;;;;;;4945216;28;85816;-45
2023/04/14 03:45:31;;;;;;;90.68;51.70;;;14.60;68.00;;;;;;4947595;28;89482;-60
2023/04/14 03:48:02;;;;;;;92.05;51.63;;;14.50;67.90;;;;;;4947074;28;85232;-60
2023/04/14 03:50:39;;;;;;;90.63;51.55;;;14.50;67.80;;;;;;4960263;28;84949;-60
2023/04/14 03:53:07;;;;;;;90.35;51.65;;;14.50;67.90;;;;;;4961931;28;86494;-60
2023/04/14 03:55:35;;;;;;;90.78;51.42;;;14.50;68.00;;;;;;4959617;28;85784;-60
2023/04/14 03:58:02;;;;;;;91.13;52.03;;;14.50;67.90;;;;;;4959751;28;85950;-50
2023/04/14 04:00:29;;;;;;;90.95;51.85;;;14.50;67.90;;;;;;4957621;28;87667;-60
2023/04/14 04:02:57;;;;;;;91.75;51.80;;;14.50;68.00;;;;;;4953026;28;87192;-59
2023/04/14 04:05:23;;;;;;;91.32;51.78;;;14.50;68.00;;;;;;4959646;28;84954;-62
2023/04/14 04:07:52;;;;;;;91.40;51.88;;;14.50;68.00;;;;;;4966198;28;85583;-49
2023/04/14 04:10:20;;;;;;;91.88;51.70;;;14.50;67.90;;;;;;4955453;28;89111;-60
2023/04/14 04:12:46;;;;;;;90.70;51.65;;;14.50;67.90;;;;;;4961925;28;85702;-55
2023/04/14 04:15:12;;;;;;;91.97;51.55;;;14.50;68.00;;;;;;4957133;28;86578;-56
2023/04/14 04:17:40;;;;;;;91.25;51.58;;;14.40;67.90;;;;;;4962353;28;85961;-60
2023/04/14 04:20:10;;;;;;;90.95;51.67;;;14.40;68.00;;;;;;4958360;28;85308;-59
2023/04/14 04:22:39;;;;;;;90.50;51.50;;;14.40;67.90;;;;;;4958541;28;86220;-59
2023/04/14 04:25:06;;;;;;;91.03;51.83;;;14.40;68.00;;;;;;4956038;28;86405;-56
2023/04/14 04:27:32;;;;;;;90.95;51.85;;;14.40;68.00;;;;;;4959874;28;84623;-54
2023/04/14 04:29:58;;;;;;;91.15;51.80;;;14.40;68.00;;;;;;4953915;28;87140;-60
2023/04/14 04:32:24;;;;;;;92.35;52.00;;;14.40;68.00;;;;;;4959861;28;86332;-60
2023/04/14 04:34:51;;;;;;;90.63;51.58;;;14.40;68.00;;;;;;4959433;28;84791;-60
2023/04/14 04:37:18;;;;;;;91.00;51.55;;;14.40;68.00;;;;;;4955329;28;85116;-56
2023/04/14 04:39:44;;;;;;;91.00;51.92;;;14.40;68.00;;;;;;4960795;28;86012;-51
2023/04/14 04:42:10;;;;;;;91.55;51.78;;;14.40;68.00;;;;;;4960283;28;85011;-58
2023/04/14 04:44:35;;;;;;;91.65;51.67;;;14.40;68.00;;;;;;4953911;28;86843;-57
2023/04/14 04:47:02;;;;;;;90.93;51.83;;;14.30;67.90;;;;;;4949521;28;86188;-54
2023/04/14 04:49:28;;;;;;;89.82;51.33;;;14.30;67.90;;;;;;4947561;28;86296;-60
2023/04/14 04:51:55;;;;;;;90.78;51.97;;;14.30;68.00;;;;;;4958363;28;85058;-59
2023/04/14 04:54:21;;;;;;;90.43;51.47;;;14.30;67.90;;;;;;4957443;28;84778;-44
2023/04/14 04:56:46;;;;;;;91.40;51.55;;;14.30;68.00;;;;;;4956535;28;85269;-60
2023/04/14 04:59:12;;;;;;;90.43;51.70;;;14.30;68.00;;;;;;4959078;28;85254;-60
2023/04/14 05:01:37;;;;;;;91.90;51.67;;;14.30;68.00;;;;;;4954067;28;85147;-60
2023/04/14 05:04:03;;;;;;;91.15;51.45;;;14.30;68.00;;;;;;4961526;28;85138;-59
2023/04/14 05:06:29;;;;;;;91.05;52.03;;;14.30;68.00;;;;;;4957216;28;86350;-56
2023/04/14 05:08:55;;;;;;;91.88;51.92;;;14.30;68.10;;;;;;4962401;27;85532;-59
2023/04/14 05:11:22;;;;;;;91.75;51.85;;;14.30;68.00;;;;;;4945250;28;87723;-53
2023/04/14 05:13:47;;;;;;;90.05;51.75;;;14.20;67.80;;;;;;4949254;28;84528;-60
2023/04/14 05:16:13;;;;;;;90.93;51.35;;;14.30;68.00;;;;;;4956552;28;86859;-50
2023/04/14 05:18:40;;;;;;;90.65;51.42;;;14.20;68.00;;;;;;4961988;28;86307;-53
2023/04/14 05:21:14;;;;;;;91.38;51.72;;;14.20;68.00;;;;;;4953147;28;90421;-59
2023/04/14 05:23:42;;;;;;;90.78;51.53;;;14.20;68.20;;;;;;4959173;28;84805;-57
2023/04/14 05:26:09;;;;;;;91.35;52.00;;;14.20;68.40;;;;;;4960029;28;84849;-60
2023/04/14 05:28:35;;;;;;;90.80;51.63;;;14.20;68.50;;;;;;4952085;28;87390;-59
2023/04/14 05:31:01;;;;;;;91.15;51.95;;;14.20;68.50;;;;;;4951784;28;86823;-54
2023/04/14 05:33:27;;;;;;;93.22;52.08;;;14.20;68.50;;;;;;4961023;28;85556;-60
2023/04/14 05:35:52;;;;;;;91.78;51.88;;;14.20;68.70;;;;;;4952933;28;87370;-59
2023/04/14 05:38:19;;;;;;;91.05;52.15;;;14.20;68.70;;;;;;4949747;28;85487;-60
2023/04/14 05:40:46;;;;;;;94.20;53.13;;;14.20;68.70;;;;;;4953707;28;84898;-59
2023/04/14 05:43:13;;;;;;;96.22;52.83;;;14.20;69.10;;;;;;4956378;28;85927;-58
2023/04/14 05:45:39;;;;;;;96.40;52.92;;;14.20;69.50;;;;;;4949920;28;85364;-60
2023/04/14 05:48:05;;;;;;;95.13;53.08;;;14.20;69.80;;;;;;4962004;28;85274;-60
2023/04/14 05:50:32;;;;;;;94.50;52.50;;;14.20;69.50;;;;;;4961177;28;84930;-53
2023/04/14 05:52:58;;;;;;;92.80;52.53;;;14.20;69.60;;;;;;4960009;27;85614;-60
2023/04/14 05:55:24;;;;;;;92.72;52.25;;;14.20;69.40;;;;;;4960098;28;87544;-52
2023/04/14 05:57:50;;;;;;;95.45;52.45;;;14.20;69.40;;;;;;4960201;28;88674;-59
2023/04/14 06:00:16;;;;;;;95.75;52.40;;;14.20;69.40;;;;;;4948861;28;89744;-59
2023/04/14 06:02:43;;;;;;;94.57;52.45;;;14.20;69.40;;;;;;4952781;28;85182;-61
2023/04/14 06:05:09;;;;;;;94.03;52.47;;;14.20;69.50;;;;;;4958833;28;84614;-59
2023/04/14 06:07:36;;;;;;;93.50;52.38;;;14.20;69.40;;;;;;4963918;28;84994;-60
2023/04/14 06:10:02;;;;;;;93.78;52.65;;;14.20;69.50;;;;;;4962573;28;87069;-51
2023/04/14 06:12:28;;;;;;;93.28;52.38;;;14.20;69.50;;;;;;4960015;28;85894;-60
2023/04/14 06:14:57;;;;;;;95.00;52.90;;;14.20;69.50;;;;;;4961415;28;85098;-49
2023/04/14 06:17:22;;;;;;;99.25;52.58;;;14.20;69.90;;;;;;4959774;28;87900;-53
2023/04/14 06:19:48;;;;;;;93.38;52.03;;;14.20;69.70;;;;;;4959191;28;85154;-60
2023/04/14 06:22:18;;;;;;;94.72;52.58;;;14.20;69.80;;;;;;4959457;28;84780;-58
2023/04/14 06:24:44;;;;;;;95.20;52.60;;;14.20;69.90;;;;;;4963290;28;85683;-58
2023/04/14 06:27:10;;;;;;;98.05;52.70;;;14.20;69.80;;;;;;4962344;28;85619;-59
2023/04/14 06:29:36;;;;;;;96.13;52.65;;;14.20;69.70;;;;;;4961534;28;84847;-56
2023/04/14 06:32:01;;;;;;;95.35;52.72;;;14.20;69.70;;;;;;4957308;28;85465;-57
2023/04/14 06:34:27;;;;;;;94.00;52.50;;;14.30;69.80;;;;;;4955866;28;84931;-56
2023/04/14 06:36:55;;;;;;;94.53;52.42;;;14.20;69.50;;;;;;4953840;28;86665;-60
2023/04/14 06:39:21;;;;;;;98.32;52.67;;;14.20;69.90;;;;;;4953586;28;84582;-57
2023/04/14 06:41:47;;;;;;;101.05;52.58;;;14.20;69.90;;;;;;4959117;28;85310;-60
2023/04/14 06:44:12;;;;;;;97.88;53.00;;;14.30;70.10;;;;;;4958735;28;85591;-57
2023/04/14 06:46:38;;;;;;;94.90;52.90;;;14.20;70.00;;;;;;4952539;28;84862;-60
2023/04/14 06:49:04;;;;;;;97.43;52.70;;;14.30;70.40;;;;;;4961885;28;85663;-54
2023/04/14 06:51:31;;;;;;;94.22;52.70;;;14.30;70.30;;;;;;4964409;28;85364;-59
2023/04/14 06:53:57;;;;;;;98.15;52.53;;;14.30;70.30;;;;;;4962090;28;86239;-60
2023/04/14 06:56:23;;;;;;;96.05;52.60;;;14.30;70.10;;;;;;4954896;28;85166;-60
2023/04/14 06:58:48;;;;;;;95.00;52.58;;;14.30;70.00;;;;;;4963725;28;85706;-60
2023/04/14 07:01:14;;;;;;;94.97;52.83;;;14.30;70.00;;;;;;4961592;28;85817;-60
2023/04/14 07:03:40;;;;;;;99.53;53.50;;;14.30;69.80;;;;;;4958571;28;85719;-52
2023/04/14 07:06:09;;;;;;;98.03;53.88;;;14.30;69.70;;;;;;4953630;28;85427;-55
2023/04/14 07:08:35;;;;;;;99.68;53.53;;;14.30;70.20;;;;;;4959027;28;84891;-54
2023/04/14 07:11:07;;;;;;;102.25;53.67;;;14.40;71.30;;;;;;4956623;28;86084;-51
2023/04/14 07:13:33;;;;;;;105.25;54.90;;;14.40;71.40;;;;;;4958743;28;90501;-51
2023/04/14 07:16:01;;;;;;;98.57;54.13;;;14.40;72.20;;;;;;4958160;28;90146;-57
2023/04/14 07:18:26;;;;;;;100.70;54.40;;;14.40;71.80;;;;;;4954201;28;94031;-58
2023/04/14 07:20:53;;;;;;;104.45;55.90;;;14.40;72.00;;;;;;4955387;28;94092;-56
2023/04/14 07:23:19;;;;;;;101.80;55.42;;;14.40;72.30;;;;;;4951704;28;92584;-42
2023/04/14 07:25:50;;;;;;;106.63;56.63;;;14.40;72.10;;;;;;4956820;28;91403;-41
2023/04/14 07:28:16;;;;;;;106.03;56.35;;;14.40;71.90;;;;;;4959642;28;89850;-42
2023/04/14 07:30:42;;;;;;;107.18;56.10;;;14.40;71.90;;;;;;4959129;28;89872;-43
2023/04/14 07:33:08;;;;;;;110.18;56.42;;;14.40;71.80;;;;;;4955990;28;90006;-42
2023/04/14 07:35:33;;;;;;;103.45;56.00;;;14.40;72.10;;;;;;4950259;28;94526;-41
2023/04/14 07:37:59;;;;;;;109.78;56.42;;;14.40;72.60;;;;;;4962034;28;89469;-39
2023/04/14 07:40:25;;;;;;;106.07;55.88;;;14.50;72.60;;;;;;4958755;28;88631;-43
2023/04/14 07:42:51;;;;;;;104.70;56.05;;;14.50;72.80;;;;;;4952984;28;91280;-42
2023/04/14 07:45:17;;;;;;;106.82;56.83;;;14.60;72.70;;;;;;4956433;28;91616;-43
2023/04/14 07:47:43;;;;;;;108.00;57.15;;;14.60;72.60;;;;;;4951455;28;91382;-41
2023/04/14 07:50:09;;;;;;;101.53;56.65;;;14.60;72.40;;;;;;4958197;28;89760;-41
2023/04/14 07:52:36;;;;;;;106.43;57.38;;;14.60;72.30;;;;;;4951935;28;89672;-44
2023/04/14 07:55:03;;;;;;;107.63;57.83;;;14.50;72.10;;;;;;4955651;28;90481;-42
2023/04/14 07:57:29;;;;;;;105.38;57.95;;;14.60;72.10;;;;;;4958287;28;89706;-41
2023/04/14 07:59:54;;;;;;;114.10;58.97;;;14.50;72.10;;;;;;4956661;28;90730;-43
2023/04/14 08:02:21;;;;;;;109.50;58.67;;;14.60;72.40;;;;;;4957828;28;90163;-42
2023/04/14 08:04:46;;;;;;;110.63;59.05;;;14.50;72.50;;;;;;4957359;28;91270;-44
2023/04/14 08:07:12;;;;;;;110.55;59.05;;;14.60;72.00;;;;;;4955136;28;89751;-42
2023/04/14 08:09:38;;;;;;;112.75;59.63;;;14.60;71.50;;;;;;4950616;28;89579;-41
2023/04/14 08:12:04;;;;;;;106.13;59.65;;;14.60;71.50;;;;;;4950723;28;90660;-41
2023/04/14 08:14:30;;;;;;;106.63;58.95;;;14.60;71.80;;;;;;4950152;28;91803;-42
2023/04/14 08:16:55;;;;;;;113.22;59.30;;;14.70;72.50;;;;;;4955731;28;90697;-43
2023/04/14 08:19:21;;;;;;;105.30;58.50;;;14.60;72.40;;;;;;4958261;28;90029;-42
2023/04/14 08:21:47;;;;;;;106.20;59.00;;;14.60;72.30;;;;;;4952432;28;91445;-43
2023/04/14 08:24:13;;;;;;;106.88;58.28;;;14.60;72.10;;;;;;4949682;28;90761;-41
2023/04/14 08:26:40;;;;;;;109.15;58.05;;;14.70;72.00;;;;;;4954506;28;90619;-41
2023/04/14 08:29:05;;;;;;;107.47;58.15;;;14.70;71.80;;;;;;4947781;28;89519;-40
2023/04/14 08:31:32;;;;;;;112.10;58.13;;;14.60;71.60;;;;;;4952365;28;95873;-46
2023/04/14 08:33:57;;;;;;;110.43;57.72;;;14.70;71.90;;;;;;4951829;28;89892;-45
2023/04/14 08:36:24;;;;;;;103.45;56.85;;;14.70;71.70;;;;;;4955868;28;91201;-41
2023/04/14 08:38:49;;;;;;;106.18;57.65;;;14.70;71.80;;;;;;4952277;28;90073;-45
2023/04/14 08:41:18;;;;;;;108.93;56.97;;;14.80;71.80;;;;;;4954257;28;90103;-49
2023/04/14 08:43:45;;;;;;;103.78;56.63;;;14.80;71.60;;;;;;4956139;28;89957;-46
2023/04/14 08:46:11;;;;;;;109.68;56.90;;;14.80;71.30;;;;;;4961137;28;89783;-48
2023/04/14 08:48:38;;;;;;;105.43;56.40;;;14.80;71.00;;;;;;4956293;28;90135;-46
2023/04/14 08:51:18;;;;;;;101.50;55.92;;;14.80;70.80;;;;;;4948343;28;89774;-42
2023/04/14 08:53:47;;;;;;;107.00;56.90;;;14.80;70.60;;;;;;4938964;28;93100;-46
2023/04/14 08:56:16;;;;;;;102.00;54.72;;;14.90;71.10;;;;;;4948144;28;90057;-41
2023/04/14 08:58:43;;;;;;;106.72;56.05;;;14.90;71.00;;;;;;4943212;28;90019;-42
2023/04/14 09:01:09;;;;;;;104.85;56.13;;;14.90;70.90;;;;;;4945216;28;93539;-43
2023/04/14 09:03:36;;;;;;;98.88;55.30;;;14.90;70.70;;;;;;4947189;28;89863;-43
2023/04/14 09:06:04;;;;;;;99.07;54.83;;;14.90;70.50;;;;;;4951068;28;91231;-43
2023/04/14 09:08:33;;;;;;;109.47;55.75;;;14.90;69.80;;;;;;4946077;28;90039;-42
2023/04/14 09:11:01;;;;;;;101.28;55.20;;;14.90;70.00;;;;;;4954832;28;89497;-42
2023/04/14 09:13:27;;;;;;;102.32;55.70;;;14.90;69.80;;;;;;4960614;28;90024;-41
2023/04/14 09:15:53;;;;;;;105.38;54.83;;;14.90;69.70;;;;;;4955049;28;90285;-41
2023/04/14 09:18:20;;;;;;;106.93;55.85;;;14.90;69.70;;;;;;4960890;28;89565;-41
2023/04/14 09:20:49;;;;;;;100.72;55.03;;;14.90;69.70;;;;;;4958846;28;90018;-41
2023/04/14 09:23:15;;;;;;;99.50;55.25;;;14.90;69.80;;;;;;4959315;28;89296;-44
2023/04/14 09:25:42;;;;;;;103.15;55.00;;;15.00;69.80;;;;;;4962296;28;90553;-42
2023/04/14 09:28:07;;;;;;;100.82;55.05;;;15.00;69.80;;;;;;4955386;28;89604;-43
2023/04/14 09:30:33;;;;;;;100.63;54.28;;;15.00;69.30;;;;;;4954410;28;90115;-42
2023/04/14 09:33:06;;;;;;;101.53;55.00;;;15.00;69.70;;;;;;4950990;28;89778;-43
2023/04/14 09:35:53;;;;;;;99.53;54.78;;;15.00;69.60;;;;;;4951942;28;90229;-41
2023/04/14 09:38:38;;;;;;;100.00;54.00;;;15.00;69.40;;;;;;4947973;28;90395;-43
2023/04/14 09:41:07;;;;;;;102.47;54.28;;;15.00;69.40;;;;;;4954780;28;89933;-43
2023/04/14 09:43:35;;;;;;;98.05;54.17;;;15.00;69.30;;;;;;4952315;28;89270;-45
2023/04/14 09:46:07;;;;;;;97.13;54.30;;;15.00;69.00;;;;;;4953251;28;90769;-43
2023/04/14 09:48:33;;;;;;;98.05;54.00;;;15.00;68.80;;;;;;4953760;28;89739;-41
2023/04/14 09:51:13;;;;;;;99.20;54.00;;;15.00;68.20;;;;;;4953928;28;91449;-41
2023/04/14 09:53:40;;;;;;;101.65;53.53;;;15.00;68.50;;;;;;4951149;28;92361;-64
2023/04/14 09:56:10;;;;;;;98.90;53.67;;;15.10;67.90;;;;;;4951289;28;89852;-53
2023/04/14 09:58:41;;;;;;;98.67;53.40;;;15.10;68.60;;;;;;4959169;28;89352;-61
2023/04/14 10:01:17;;;;;;;99.13;54.08;;;15.10;68.50;;;;;;4942063;28;92261;-51
2023/04/14 10:03:44;;;;;;;97.60;53.13;;;15.20;67.80;;;;;;4941704;28;90502;-56
2023/04/14 10:06:17;;;;;;;103.72;53.90;;;15.20;68.50;;;;;;4951996;28;89546;-57
2023/04/14 10:08:45;;;;;;;98.47;53.60;;;15.30;68.20;;;;;;4947002;28;88732;-55
2023/04/14 10:11:24;;;;;;;103.70;53.40;;;15.30;67.90;;;;;;4949641;28;90593;-53
2023/04/14 10:13:53;;;;;;;99.72;53.67;;;15.40;68.60;;;;;;4943007;28;90089;-56
2023/04/14 10:16:19;;;;;;;101.30;53.17;;;15.40;68.40;;;;;;4947267;28;91564;-53
2023/04/14 10:18:45;;;;;;;100.28;53.53;;;15.40;68.30;;;;;;4950753;28;90393;-58
2023/04/14 10:21:14;;;;;;;103.13;53.50;;;15.40;67.90;;;;;;4955131;27;91273;-51
2023/04/14 10:23:41;;;;;;;102.93;53.28;;;15.40;67.80;;;;;;4947915;28;90096;-57
2023/04/14 10:26:08;;;;;;;102.82;53.38;;;15.50;68.00;;;;;;4946540;28;97474;-55
2023/04/14 10:28:42;;;;;;;98.50;53.17;;;15.40;67.80;;;;;;4951070;28;90388;-55
2023/04/14 10:31:16;;;;;;;100.15;53.42;;;15.50;68.30;;;;;;4953702;28;91076;-55
2023/04/14 10:33:42;;;;;;;98.43;53.10;;;15.50;69.10;;;;;;4952740;28;91194;-50
2023/04/14 10:36:08;;;;;;;98.75;53.15;;;15.50;69.60;;;;;;4952998;28;89981;-58
2023/04/14 10:38:45;;;;;;;99.57;53.65;;;15.50;69.60;;;;;;4949277;28;93888;-54
2023/04/14 10:41:11;;;;;;;98.07;53.40;;;15.50;69.30;;;;;;4952734;28;90951;-52
2023/04/14 10:43:38;;;;;;;98.57;53.40;;;15.50;69.10;;;;;;4957317;28;91315;-57
2023/04/14 10:46:05;;;;;;;101.85;53.50;;;15.50;68.90;;;;;;4956804;28;89409;-58
2023/04/14 10:48:32;;;;;;;98.13;53.33;;;15.50;68.60;;;;;;4956146;28;90055;-55
2023/04/14 10:51:01;;;;;;;98.47;53.25;;;15.50;68.60;;;;;;4955592;28;89472;-58
2023/04/14 10:53:54;;;;;;;99.50;53.50;;;15.50;68.70;;;;;;4955047;28;93733;-56
2023/04/14 10:56:22;;;;;;;99.85;53.38;;;15.50;68.60;;;;;;4960938;28;89513;-56
2023/04/14 10:58:56;;;;;;;100.22;53.30;;;15.50;68.30;;;;;;4956608;28;88091;-58
2023/04/14 11:01:34;;;;;;;99.13;53.20;;;15.50;68.20;;;;;;4953136;28;89907;-57
2023/04/14 11:04:17;;;;;;;98.45;53.38;;;15.50;68.00;;;;;;4954940;28;89458;-50
2023/04/14 11:06:46;;;;;;;104.30;53.25;;;15.50;68.10;;;;;;4958477;28;90635;-65
2023/04/14 11:09:30;;;;;;;99.07;52.83;;;15.60;69.40;;;;;;4956597;28;90502;-67
2023/04/14 11:12:22;;;;;;;98.88;53.08;;;15.60;70.80;;;;;;4957788;28;89598;-63
2023/04/14 11:14:48;;;;;;;97.57;53.13;;;15.60;70.80;;;;;;4954281;28;89470;-66
2023/04/14 11:17:20;;;;;;;98.25;52.90;;;15.60;70.80;;;;;;4960540;28;89655;-67
2023/04/14 11:19:46;;;;;;;101.05;53.28;;;15.60;70.70;;;;;;4957408;28;89720;-66
2023/04/14 11:22:12;;;;;;;97.00;52.67;;;15.60;70.70;;;;;;4956558;28;89448;-55
2023/04/14 11:24:39;;;;;;;98.38;52.88;;;15.60;70.60;;;;;;4952972;28;89804;-65
2023/04/14 11:27:09;;;;;;;99.30;53.35;;;15.60;70.80;;;;;;4957339;28;90135;-59
2023/04/14 11:29:35;;;;;;;96.77;52.63;;;15.60;71.10;;;;;;4956598;28;89707;-65
2023/04/14 11:32:02;;;;;;;99.93;53.15;;;15.70;71.40;;;;;;4962574;28;90780;-55
2023/04/14 11:34:28;;;;;;;97.20;52.88;;;15.70;71.60;;;;;;4954794;28;90737;-65
2023/04/14 11:36:54;;;;;;;98.90;52.85;;;15.70;71.80;;;;;;4961280;28;89468;-65
2023/04/14 11:39:21;;;;;;;98.75;53.13;;;15.70;71.90;;;;;;4955544;28;89716;-66
2023/04/14 11:41:47;;;;;;;99.00;53.03;;;15.70;72.10;;;;;;4955773;28;89488;-62
2023/04/14 11:44:18;;;;;;;103.25;53.15;;;15.70;72.40;;;;;;4954046;28;89448;-65
2023/04/14 11:46:44;;;;;;;96.30;52.58;;;15.70;72.80;;;;;;4956798;28;90075;-66
2023/04/14 11:49:10;;;;;;;97.10;52.65;;;15.70;73.10;;;;;;4958170;28;92005;-65
2023/04/14 11:51:36;;;;;;;97.15;52.92;;;15.70;73.40;;;;;;4962280;28;90325;-65
2023/04/14 11:54:02;;;;;;;99.25;53.05;;;15.80;73.90;;;;;;4960200;28;89179;-62
2023/04/14 11:56:30;;;;;;;101.63;53.10;;;15.80;74.00;;;;;;4959546;28;90446;-66
2023/04/14 11:59:04;;;;;;;97.68;52.88;;;15.80;74.20;;;;;;4961846;28;90172;-66
2023/04/14 12:01:30;;;;;;;98.18;52.80;;;15.70;74.30;;;;;;4958651;28;91419;-58
2023/04/14 12:03:56;;;;;;;98.95;53.03;;;15.80;74.00;;;;;;4959222;28;90229;-53
2023/04/14 12:06:23;;;;;;;98.18;52.95;;;15.80;74.50;;;;;;4960174;28;92824;-55
2023/04/14 12:08:55;;;;;;;97.20;52.55;;;15.80;74.80;;;;;;4959664;28;89602;-59
2023/04/14 12:11:21;;;;;;;97.90;52.80;;;15.80;75.10;;;;;;4963668;28;90549;-57
2023/04/14 12:13:49;;;;;;;98.18;53.13;;;15.80;75.30;;;;;;4957250;28;89400;-58
2023/04/14 12:16:16;;;;;;;98.82;52.85;;;15.80;75.60;;;;;;4953864;28;89585;-58
2023/04/14 12:18:42;;;;;;;99.05;52.88;;;15.90;75.70;;;;;;4958413;28;89851;-56
2023/04/14 12:21:08;;;;;;;99.22;52.85;;;15.80;75.60;;;;;;4955271;28;91939;-51
2023/04/14 12:23:41;;;;;;;97.90;52.88;;;15.90;75.70;;;;;;4958764;28;92260;-59
2023/04/14 12:26:10;;;;;;;100.70;53.28;;;15.90;75.70;;;;;;4955754;28;89450;-57
2023/04/14 12:28:38;;;;;;;97.45;52.75;;;15.80;75.60;;;;;;4954232;28;89997;-58
2023/04/14 12:31:03;;;;;;;97.80;52.90;;;15.90;75.60;;;;;;4953019;28;90172;-59